createdAt,value
2019-04-16T03:54:57.741Z,62.30
2019-04-16T04:03:42.881Z,67.10
2019-04-16T04:17:55.463Z,61.20
2019-04-16T04:20:27.858Z,63.40
2019-04-16T04:23:25.496Z,66.00
2019-04-16T04:26:42.022Z,67.20
2019-04-16T04:29:24.786Z,70.00
2019-04-16T04:33:10.298Z,70.00
2019-04-16T04:35:44.375Z,70.30
2019-04-16T04:38:21.891Z,62.90
2019-04-16T04:40:59.951Z,62.10
2019-04-16T04:43:31.956Z,61.50
2019-04-16T04:46:03.112Z,62.10
2019-04-16T04:48:34.166Z,65.50
2019-04-16T04:51:09.569Z,65.20
2019-04-16T04:53:41.235Z,62.80
2019-04-16T04:56:19.170Z,62.70
2019-04-16T04:58:50.529Z,62.50
2019-04-16T05:01:23.138Z,63.50
2019-04-16T05:04:26.555Z,65.30
2019-04-16T05:07:04.720Z,62.90
2019-04-16T05:09:42.448Z,63.20
2019-04-16T05:12:18.273Z,66.20
2019-04-16T05:14:57.107Z,66.70
2019-04-16T05:17:40.285Z,64.70
2019-04-16T05:20:15.704Z,66.00
2019-04-16T05:22:50.498Z,62.10
2019-04-16T05:25:22.917Z,61.70
2019-04-16T05:27:53.062Z,60.40
2019-04-16T05:30:23.318Z,59.30
2019-04-16T05:33:05.558Z,56.20
2019-04-16T05:35:38.622Z,53.80
2019-04-16T05:38:09.207Z,54.30
2019-04-16T05:40:40.979Z,55.20
2019-04-16T05:43:11.366Z,54.40
2019-04-16T05:45:50.477Z,55.30
2019-04-16T05:48:22.821Z,53.70
2019-04-16T05:50:53.571Z,50.80
2019-04-16T05:53:26.601Z,51.10
2019-04-16T05:56:20.249Z,51.70
2019-04-16T05:58:52.746Z,51.10
2019-04-16T06:01:42.441Z,51.50
2019-04-16T06:04:17.526Z,52.40
2019-04-16T06:06:48.467Z,52.10
2019-04-16T06:09:25.495Z,51.70
2019-04-16T06:11:58.593Z,50.20
2019-04-16T06:18:08.141Z,50.00
2019-04-16T06:20:56.069Z,48.60
2019-04-16T06:23:43.571Z,47.20
2019-04-16T06:26:35.688Z,46.90
2019-04-16T06:29:29.079Z,46.40
2019-04-16T06:32:28.144Z,46.10
2019-04-16T06:35:16.349Z,45.60
2019-04-16T06:38:01.019Z,45.20
2019-04-16T06:40:45.621Z,44.10
2019-04-16T06:43:26.314Z,43.50
2019-04-16T06:46:20.203Z,44.40
2019-04-16T06:49:08.007Z,43.40
2019-04-16T06:51:52.610Z,42.30
2019-04-16T06:54:39.511Z,41.90
2019-04-16T06:57:27.515Z,40.30
2019-04-16T07:00:14.905Z,38.20
2019-04-16T07:03:05.736Z,37.60
2019-04-16T07:06:03.673Z,36.90
2019-04-16T07:09:03.606Z,35.00
2019-04-16T07:11:33.962Z,32.50
2019-04-16T07:14:06.237Z,33.00
2019-04-16T07:16:38.295Z,32.40
2019-04-16T07:19:11.647Z,30.10
2019-04-16T07:21:48.725Z,29.50
2019-04-16T07:24:15.508Z,28.80
2019-04-16T07:26:47.627Z,28.50
2019-04-16T07:29:37.579Z,28.80
2019-04-16T07:32:23.838Z,27.80
2019-04-16T07:35:01.996Z,26.40
2019-04-16T07:37:47.890Z,27.30
2019-04-16T07:40:39.776Z,26.40
2019-04-16T07:43:31.254Z,26.40
2019-04-16T07:46:16.459Z,25.40
2019-04-16T07:49:16.456Z,25.30
2019-04-16T07:52:11.743Z,24.80
2019-04-16T07:55:08.906Z,25.50
2019-04-16T07:57:39.122Z,24.90
2019-04-16T08:00:10.152Z,24.70
2019-04-16T08:02:40.431Z,23.90
2019-04-16T08:05:14.296Z,23.80
2019-04-16T08:07:44.723Z,23.40
2019-04-16T08:10:16.757Z,23.70
2019-04-16T08:12:51.468Z,23.50
2019-04-16T08:15:21.629Z,22.90
2019-04-16T08:17:52.631Z,22.70
2019-04-16T08:20:22.821Z,22.10
2019-04-16T08:22:57.052Z,21.20
2019-04-16T08:25:33.665Z,21.40
2019-04-16T08:28:02.021Z,21.40
2019-04-16T08:30:38.976Z,21.50
2019-04-16T08:33:04.323Z,21.10
2019-04-16T08:35:37.985Z,21.70
2019-04-16T08:38:10.140Z,20.80
2019-04-16T08:40:40.343Z,19.70
2019-04-16T08:43:10.792Z,20.40
2019-04-16T08:45:44.238Z,20.90
2019-04-16T08:48:18.917Z,18.90
2019-04-16T08:50:50.969Z,18.50
2019-04-16T08:53:26.244Z,19.10
2019-04-16T08:55:55.644Z,17.80
2019-04-16T08:58:27.826Z,17.90
2019-04-16T09:01:01.108Z,16.60
2019-04-16T09:03:31.422Z,16.60
2019-04-16T09:06:05.537Z,17.90
2019-04-16T09:08:53.886Z,17.90
2019-04-16T09:11:28.420Z,18.00
2019-04-16T09:14:00.839Z,17.20
2019-04-16T09:16:33.888Z,16.70
2019-04-16T09:19:13.603Z,17.80
2019-04-16T09:21:45.349Z,18.10
2019-04-16T09:24:32.765Z,18.10
2019-04-16T09:27:34.180Z,16.80
2019-04-16T09:30:16.783Z,17.60
2019-04-16T09:32:53.044Z,17.00
2019-04-16T09:35:29.775Z,16.10
2019-04-16T09:38:21.386Z,16.30
2019-04-16T09:41:10.811Z,16.70
2019-04-16T09:43:47.053Z,15.90
2019-04-16T09:46:21.878Z,16.00
2019-04-16T09:48:51.635Z,15.60
2019-04-16T09:51:25.027Z,15.40
2019-04-16T09:53:55.813Z,15.70
2019-04-16T09:56:29.105Z,14.80
2019-04-16T09:59:05.987Z,16.00
2019-04-16T10:01:48.083Z,16.30
2019-04-16T10:04:21.107Z,15.30
2019-04-16T10:06:53.255Z,15.20
2019-04-16T10:09:23.213Z,15.50
2019-04-16T10:11:53.582Z,15.30
2019-04-16T10:14:26.890Z,15.30
2019-04-16T10:16:57.208Z,14.30
2019-04-16T10:19:28.050Z,15.00
2019-04-16T10:21:58.427Z,15.20
2019-04-16T10:25:26.815Z,14.40
2019-04-16T10:28:10.487Z,13.90
2019-04-16T10:30:45.885Z,12.90
2019-04-16T10:33:16.142Z,13.60
2019-04-16T10:35:47.437Z,12.40
2019-04-16T10:38:54.956Z,12.20
2019-04-16T10:41:44.161Z,12.80
2019-04-16T10:44:31.585Z,14.00
2019-04-16T10:47:21.656Z,13.60
2019-04-16T10:50:04.475Z,13.00
2019-04-16T10:52:59.185Z,12.50
2019-04-16T10:55:49.836Z,13.60
2019-04-16T10:58:41.557Z,12.40
2019-04-16T11:01:19.927Z,11.80
2019-04-16T11:07:26.557Z,12.50
2019-04-16T11:09:58.034Z,10.70
2019-04-16T11:12:28.238Z,11.60
2019-04-16T11:14:58.699Z,11.30
2019-04-16T11:17:29.316Z,11.80
2019-04-16T11:20:00.173Z,11.80
2019-04-16T11:22:30.632Z,11.40
2019-04-16T11:25:00.819Z,10.40
2019-04-16T11:27:30.938Z,10.60
2019-04-16T11:30:01.091Z,10.80
2019-04-16T11:32:31.897Z,10.50
2019-04-16T11:35:05.575Z,10.40
2019-04-16T11:37:36.533Z,11.20
2019-04-16T11:40:07.054Z,11.30
2019-04-16T11:42:39.322Z,10.10
2019-04-16T11:45:12.886Z,10.40
2019-04-16T11:47:43.217Z,10.40
2019-04-16T11:50:16.377Z,10.20
2019-04-16T11:52:46.929Z,10.20
2019-04-16T11:55:18.008Z,10.80
2019-04-16T11:57:49.133Z,10.30
2019-04-16T12:00:32.449Z,9.90
2019-04-16T12:03:28.294Z,10.50
2019-04-16T12:06:27.772Z,9.70
2019-04-16T12:09:06.628Z,10.00
2019-04-16T12:11:55.827Z,9.90
2019-04-16T12:14:45.485Z,9.90
2019-04-16T12:17:24.363Z,10.30
2019-04-16T12:20:17.965Z,9.00
2019-04-16T12:23:00.757Z,9.20
2019-04-16T12:25:37.381Z,9.60
2019-04-16T12:28:23.711Z,9.20
2019-04-16T12:31:04.608Z,9.30
2019-04-16T12:33:53.702Z,9.80
2019-04-16T12:36:34.135Z,10.70
2019-04-16T12:39:22.375Z,11.40
2019-04-16T12:42:26.691Z,12.40
2019-04-16T12:45:19.667Z,12.90
2019-04-16T12:47:58.967Z,13.20
2019-04-16T12:50:46.183Z,13.70
2019-04-16T12:53:36.188Z,14.00
2019-04-16T12:56:25.686Z,13.90
2019-04-16T12:59:24.534Z,13.50
2019-04-16T13:02:04.613Z,13.10
2019-04-16T13:04:49.407Z,13.40
2019-04-16T13:07:25.807Z,13.50
2019-04-16T13:10:20.107Z,14.10
2019-04-16T13:13:00.542Z,15.20
2019-04-16T13:15:51.227Z,15.10
2019-04-16T13:18:38.969Z,15.20
2019-04-16T13:21:28.050Z,13.80
2019-04-16T13:24:06.370Z,13.00
2019-04-16T13:26:45.330Z,12.10
2019-04-16T13:29:19.220Z,11.60
2019-04-16T13:31:51.187Z,11.20
2019-04-16T13:34:21.388Z,10.10
2019-04-16T13:36:52.222Z,11.50
2019-04-16T13:39:52.843Z,12.60
2019-04-16T13:42:24.257Z,10.70
2019-04-16T13:45:18.583Z,10.70
2019-04-16T13:47:55.688Z,10.90
2019-04-16T13:50:41.206Z,10.20
2019-04-16T13:53:29.163Z,10.50
2019-04-16T13:56:09.941Z,10.40
2019-04-16T13:58:49.209Z,10.20
2019-04-16T14:01:24.573Z,10.10
2019-04-16T14:03:58.684Z,9.60
2019-04-16T14:06:29.338Z,10.70
2019-04-16T14:09:03.234Z,11.10
2019-04-16T14:11:41.345Z,10.40
2019-04-16T14:14:11.495Z,10.90
2019-04-16T14:16:43.704Z,9.60
2019-04-16T14:19:14.964Z,10.60
2019-04-16T14:21:49.915Z,10.40
2019-04-16T14:24:20.702Z,10.40
2019-04-16T14:26:52.512Z,11.40
2019-04-16T14:29:25.079Z,15.80
2019-04-16T14:31:55.719Z,23.30
2019-04-16T14:34:47.919Z,30.10
2019-04-16T14:37:20.062Z,36.10
2019-04-16T14:39:57.945Z,37.00
2019-04-16T14:42:29.650Z,43.00
2019-04-16T14:45:09.654Z,47.80
2019-04-16T14:47:40.817Z,52.00
2019-04-16T14:50:13.302Z,47.10
2019-04-16T14:52:47.905Z,50.10
2019-04-16T14:55:30.093Z,47.90
2019-04-16T14:58:11.743Z,47.70
2019-04-16T15:00:55.110Z,45.30
2019-04-16T15:03:35.626Z,45.00
2019-04-16T15:06:25.292Z,45.60
2019-04-16T15:09:17.726Z,46.30
2019-04-16T15:12:19.927Z,50.20
2019-04-16T15:15:00.944Z,52.80
2019-04-16T15:17:45.214Z,50.50
2019-04-16T15:20:41.474Z,46.60
2019-04-16T15:23:30.659Z,48.30
2019-04-16T15:26:25.798Z,46.20
2019-04-16T15:29:26.808Z,49.50
2019-04-16T15:38:30.845Z,38.20
2019-04-16T15:41:44.598Z,35.40
2019-04-16T15:44:37.785Z,36.00
2019-04-16T15:47:36.193Z,32.20
2019-04-16T15:51:00.796Z,32.50
2019-04-16T16:05:37.823Z,31.10
2019-04-16T16:47:17.760Z,34.50
2019-04-16T16:49:52.534Z,31.50
2019-04-16T16:52:43.008Z,33.90
2019-04-16T16:55:38.583Z,31.30
2019-04-16T16:59:19.725Z,32.10
2019-04-16T17:02:44.814Z,32.00
2019-04-16T17:05:56.333Z,37.10
2019-04-16T17:09:21.761Z,41.50
2019-04-16T17:12:45.199Z,42.60
2019-04-16T17:15:35.533Z,44.60
2019-04-16T17:18:29.564Z,44.40
2019-04-16T17:21:33.711Z,42.00
2019-04-16T17:24:05.194Z,43.60
2019-04-16T17:27:23.832Z,39.80
2019-04-16T17:29:54.386Z,38.90
2019-04-16T17:32:31.213Z,39.10
2019-04-16T17:35:06.754Z,41.50
2019-04-16T17:37:54.585Z,37.80
2019-04-16T17:40:36.162Z,40.50
2019-04-16T17:43:15.740Z,39.00
2019-04-16T17:45:58.999Z,40.40
2019-04-16T17:48:40.212Z,39.00
2019-04-16T17:51:29.837Z,36.60
2019-04-16T17:54:21.593Z,37.90
2019-04-16T17:57:11.807Z,36.20
2019-04-16T18:00:10.370Z,37.50
2019-04-16T18:02:57.321Z,37.10
2019-04-16T18:05:54.504Z,36.30
2019-04-16T18:08:41.952Z,37.40
2019-04-16T18:11:18.566Z,38.40
2019-04-16T18:14:11.356Z,39.10
2019-04-16T18:20:40.235Z,40.10
2019-04-16T18:23:23.008Z,40.60
2019-04-16T18:26:13.202Z,41.70
2019-04-16T18:29:15.654Z,42.10
2019-04-16T18:32:27.656Z,43.80
2019-04-16T18:35:20.721Z,44.10
2019-04-16T18:38:14.829Z,44.00
2019-04-16T18:41:16.811Z,43.80
2019-04-16T18:44:28.913Z,44.80
2019-04-16T18:47:32.576Z,44.80
2019-04-16T18:50:14.175Z,44.80
2019-04-16T18:52:43.400Z,44.60
2019-04-16T18:55:19.222Z,44.90
2019-04-16T18:58:02.890Z,45.30
2019-04-16T19:00:50.535Z,45.80
2019-04-16T19:03:23.712Z,45.40
2019-04-16T19:06:01.734Z,45.10
2019-04-16T19:08:53.459Z,44.80
2019-04-16T19:11:32.889Z,45.80
2019-04-16T19:14:36.247Z,44.70
2019-04-16T19:17:30.062Z,46.00
2019-04-16T19:20:11.152Z,45.10
2019-04-16T19:23:22.998Z,45.40
2019-04-16T19:26:19.008Z,43.20
2019-04-16T19:28:57.599Z,48.50
2019-04-16T19:31:33.780Z,48.20
2019-04-16T19:34:10.207Z,46.20
2019-04-16T19:37:04.053Z,45.30
2019-04-16T19:39:38.833Z,45.60
2019-04-16T19:42:14.226Z,45.90
2019-04-16T19:44:55.290Z,46.10
2019-04-16T19:47:35.548Z,47.10
2019-04-16T19:50:10.418Z,48.60
2019-04-16T19:55:45.989Z,50.70
2019-04-16T19:58:24.364Z,51.10
2019-04-16T20:00:59.121Z,52.20
2019-04-16T20:03:31.357Z,52.60
2019-04-16T20:06:02.504Z,51.60
2019-04-16T20:08:40.770Z,51.30
2019-04-16T20:11:15.085Z,51.00
2019-04-16T20:13:49.844Z,50.70
2019-04-16T20:16:35.536Z,50.60
2019-04-16T20:19:11.009Z,50.60
2019-04-16T20:21:55.929Z,50.40
2019-04-16T20:24:45.921Z,50.90
2019-04-16T20:27:29.134Z,51.20
2019-04-16T20:37:37.907Z,55.20
2019-04-16T20:44:03.213Z,55.20
2019-04-16T20:54:55.945Z,59.90
2019-04-16T21:04:32.653Z,61.40
2019-04-16T21:39:52.144Z,69.10
